sensor_id;sensor_type;location;lat;lon;timestamp;temperature;humidity
18317;DHT22;9284;52.298;21.164;2023-06-04T00:02:06;5.30;1.00
18317;DHT22;9284;52.298;21.164;2023-06-04T00:05:00;5.20;1.00
18317;DHT22;9284;52.298;21.164;2023-06-04T00:07:35;5.20;1.00
18317;DHT22;9284;52.298;21.164;2023-06-04T00:10:39;5.10;1.00
18317;DHT22;9284;52.298;21.164;2023-06-04T00:13:29;5.10;1.00
18317;DHT22;9284;52.298;21.164;2023-06-04T00:16:07;5.10;1.00
18317;DHT22;9284;52.298;21.164;2023-06-04T00:18:45;5.10;1.00
18317;DHT22;9284;52.298;21.164;2023-06-04T00:21:45;4.80;1.00
18317;DHT22;9284;52.298;21.164;2023-06-04T00:24:23;5.00;1.00
18317;DHT22;9284;52.298;21.164;2023-06-04T00:26:57;4.80;1.00
18317;DHT22;9284;52.298;21.164;2023-06-04T00:29:52;4.80;1.00
18317;DHT22;9284;52.298;21.164;2023-06-04T00:32:29;4.80;16.40
18317;DHT22;9284;52.298;21.164;2023-06-04T00:34:58;4.70;51.50
18317;DHT22;9284;52.298;21.164;2023-06-04T00:37:28;4.70;98.40
18317;DHT22;9284;52.298;21.164;2023-06-04T00:40:09;4.60;99.90
18317;DHT22;9284;52.298;21.164;2023-06-04T00:42:47;4.70;99.90
18317;DHT22;9284;52.298;21.164;2023-06-04T00:45:34;4.70;99.90
18317;DHT22;9284;52.298;21.164;2023-06-04T00:48:06;4.60;99.90
18317;DHT22;9284;52.298;21.164;2023-06-04T00:50:49;4.70;99.90
18317;DHT22;9284;52.298;21.164;2023-06-04T00:53:45;4.60;99.90
18317;DHT22;9284;52.298;21.164;2023-06-04T00:56:16;4.60;1.00
18317;DHT22;9284;52.298;21.164;2023-06-04T00:58:50;4.60;1.00
18317;DHT22;9284;52.298;21.164;2023-06-04T01:01:30;4.50;1.00
18317;DHT22;9284;52.298;21.164;2023-06-04T01:04:02;4.50;1.00
18317;DHT22;9284;52.298;21.164;2023-06-04T01:06:44;4.50;1.00
18317;DHT22;9284;52.298;21.164;2023-06-04T01:10:00;4.40;1.00
18317;DHT22;9284;52.298;21.164;2023-06-04T01:12:26;4.30;1.00
18317;DHT22;9284;52.298;21.164;2023-06-04T01:15:14;4.40;1.00
18317;DHT22;9284;52.298;21.164;2023-06-04T01:18:01;4.40;1.00
18317;DHT22;9284;52.298;21.164;2023-06-04T01:20:44;4.30;1.00
18317;DHT22;9284;52.298;21.164;2023-06-04T01:23:46;4.30;1.00
18317;DHT22;9284;52.298;21.164;2023-06-04T01:26:50;4.20;1.00
18317;DHT22;9284;52.298;21.164;2023-06-04T01:29:48;4.30;1.00
18317;DHT22;9284;52.298;21.164;2023-06-04T01:32:27;4.20;3.30
18317;DHT22;9284;52.298;21.164;2023-06-04T01:35:07;4.10;99.90
18317;DHT22;9284;52.298;21.164;2023-06-04T01:37:47;4.10;99.90
18317;DHT22;9284;52.298;21.164;2023-06-04T01:40:35;4.10;99.90
18317;DHT22;9284;52.298;21.164;2023-06-04T01:43:18;4.10;99.90
18317;DHT22;9284;52.298;21.164;2023-06-04T01:45:58;4.10;99.90
18317;DHT22;9284;52.298;21.164;2023-06-04T01:48:50;4.10;1.00
18317;DHT22;9284;52.298;21.164;2023-06-04T01:51:29;4.00;1.00
18317;DHT22;9284;52.298;21.164;2023-06-04T01:54:01;3.90;1.00
18317;DHT22;9284;52.298;21.164;2023-06-04T01:56:31;4.00;1.00
18317;DHT22;9284;52.298;21.164;2023-06-04T01:59:13;3.90;99.90
18317;DHT22;9284;52.298;21.164;2023-06-04T02:01:55;3.90;99.90
18317;DHT22;9284;52.298;21.164;2023-06-04T02:04:32;3.80;99.90
18317;DHT22;9284;52.298;21.164;2023-06-04T02:07:07;3.90;99.90
18317;DHT22;9284;52.298;21.164;2023-06-04T02:09:38;3.90;99.90
18317;DHT22;9284;52.298;21.164;2023-06-04T02:12:28;3.90;99.90
18317;DHT22;9284;52.298;21.164;2023-06-04T02:15:00;3.90;99.90
18317;DHT22;9284;52.298;21.164;2023-06-04T02:24:29;3.80;99.90
18317;DHT22;9284;52.298;21.164;2023-06-04T02:26:57;3.80;99.90
18317;DHT22;9284;52.298;21.164;2023-06-04T02:29:26;3.80;99.90
18317;DHT22;9284;52.298;21.164;2023-06-04T02:31:56;3.80;99.90
18317;DHT22;9284;52.298;21.164;2023-06-04T02:34:25;3.80;99.90
18317;DHT22;9284;52.298;21.164;2023-06-04T02:36:53;3.80;99.90
18317;DHT22;9284;52.298;21.164;2023-06-04T02:39:23;3.90;99.90
18317;DHT22;9284;52.298;21.164;2023-06-04T02:41:54;4.00;99.90
18317;DHT22;9284;52.298;21.164;2023-06-04T02:44:28;3.90;99.90
18317;DHT22;9284;52.298;21.164;2023-06-04T02:46:57;3.90;99.90
18317;DHT22;9284;52.298;21.164;2023-06-04T02:49:26;3.90;99.90
18317;DHT22;9284;52.298;21.164;2023-06-04T02:51:56;3.90;99.90
18317;DHT22;9284;52.298;21.164;2023-06-04T02:54:25;3.90;99.90
18317;DHT22;9284;52.298;21.164;2023-06-04T02:56:58;3.90;99.90
18317;DHT22;9284;52.298;21.164;2023-06-04T02:59:38;4.00;99.90
18317;DHT22;9284;52.298;21.164;2023-06-04T03:02:07;4.00;99.90
18317;DHT22;9284;52.298;21.164;2023-06-04T03:04:36;4.10;99.90
18317;DHT22;9284;52.298;21.164;2023-06-04T03:07:07;4.10;99.90
18317;DHT22;9284;52.298;21.164;2023-06-04T03:09:40;4.20;99.90
18317;DHT22;9284;52.298;21.164;2023-06-04T03:12:15;4.30;1.00
18317;DHT22;9284;52.298;21.164;2023-06-04T03:14:45;4.30;1.00
18317;DHT22;9284;52.298;21.164;2023-06-04T03:17:16;4.30;1.00
18317;DHT22;9284;52.298;21.164;2023-06-04T03:19:44;4.30;1.00
18317;DHT22;9284;52.298;21.164;2023-06-04T03:22:21;4.40;1.00
18317;DHT22;9284;52.298;21.164;2023-06-04T03:24:53;4.40;99.90
18317;DHT22;9284;52.298;21.164;2023-06-04T03:27:23;4.60;99.90
18317;DHT22;9284;52.298;21.164;2023-06-04T03:29:54;4.70;99.90
18317;DHT22;9284;52.298;21.164;2023-06-04T03:32:23;4.70;99.90
18317;DHT22;9284;52.298;21.164;2023-06-04T03:34:54;4.70;99.90
18317;DHT22;9284;52.298;21.164;2023-06-04T03:37:27;4.70;99.90
18317;DHT22;9284;52.298;21.164;2023-06-04T03:39:56;4.80;99.90
18317;DHT22;9284;52.298;21.164;2023-06-04T03:42:26;4.80;21.40
18317;DHT22;9284;52.298;21.164;2023-06-04T03:44:55;5.00;1.00
18317;DHT22;9284;52.298;21.164;2023-06-04T03:47:26;5.00;1.00
18317;DHT22;9284;52.298;21.164;2023-06-04T03:50:01;5.00;1.00
18317;DHT22;9284;52.298;21.164;2023-06-04T03:52:32;5.10;1.00
18317;DHT22;9284;52.298;21.164;2023-06-04T03:55:01;5.30;1.00
18317;DHT22;9284;52.298;21.164;2023-06-04T03:57:32;5.20;1.00
18317;DHT22;9284;52.298;21.164;2023-06-04T04:00:02;5.30;1.00
18317;DHT22;9284;52.298;21.164;2023-06-04T04:02:39;5.40;1.00
18317;DHT22;9284;52.298;21.164;2023-06-04T04:05:19;5.40;1.00
18317;DHT22;9284;52.298;21.164;2023-06-04T04:07:49;5.60;1.00
18317;DHT22;9284;52.298;21.164;2023-06-04T04:10:23;5.60;1.00
18317;DHT22;9284;52.298;21.164;2023-06-04T04:12:52;5.80;99.90
18317;DHT22;9284;52.298;21.164;2023-06-04T04:15:23;5.90;99.90
18317;DHT22;9284;52.298;21.164;2023-06-04T04:17:53;6.00;99.90
18317;DHT22;9284;52.298;21.164;2023-06-04T04:20:23;6.10;4.10
18317;DHT22;9284;52.298;21.164;2023-06-04T04:23:00;6.20;3.50
18317;DHT22;9284;52.298;21.164;2023-06-04T04:25:29;6.30;1.00
18317;DHT22;9284;52.298;21.164;2023-06-04T04:28:03;6.40;1.00
18317;DHT22;9284;52.298;21.164;2023-06-04T04:30:35;6.50;1.00
18317;DHT22;9284;52.298;21.164;2023-06-04T04:33:07;6.60;99.90
18317;DHT22;9284;52.298;21.164;2023-06-04T04:35:43;6.60;1.00
18317;DHT22;9284;52.298;21.164;2023-06-04T04:38:15;6.60;1.00
18317;DHT22;9284;52.298;21.164;2023-06-04T04:40:50;6.60;1.00
18317;DHT22;9284;52.298;21.164;2023-06-04T04:43:30;6.60;1.00
18317;DHT22;9284;52.298;21.164;2023-06-04T04:46:04;6.50;1.00
18317;DHT22;9284;52.298;21.164;2023-06-04T04:48:33;6.60;1.00
18317;DHT22;9284;52.298;21.164;2023-06-04T04:51:01;6.60;24.10
18317;DHT22;9284;52.298;21.164;2023-06-04T04:53:32;6.60;99.90
18317;DHT22;9284;52.298;21.164;2023-06-04T04:56:04;6.70;99.90
18317;DHT22;9284;52.298;21.164;2023-06-04T04:58:44;6.80;99.90
18317;DHT22;9284;52.298;21.164;2023-06-04T05:01:13;6.90;99.90
18317;DHT22;9284;52.298;21.164;2023-06-04T05:03:43;7.10;66.50
18317;DHT22;9284;52.298;21.164;2023-06-04T05:06:20;7.20;1.00
18317;DHT22;9284;52.298;21.164;2023-06-04T05:08:50;7.50;1.00
18317;DHT22;9284;52.298;21.164;2023-06-04T05:11:19;7.70;1.00
18317;DHT22;9284;52.298;21.164;2023-06-04T05:13:50;8.00;99.90
18317;DHT22;9284;52.298;21.164;2023-06-04T05:16:20;8.20;1.00
18317;DHT22;9284;52.298;21.164;2023-06-04T05:18:50;8.50;1.00
18317;DHT22;9284;52.298;21.164;2023-06-04T05:21:22;8.70;99.90
18317;DHT22;9284;52.298;21.164;2023-06-04T05:23:59;9.00;99.90
18317;DHT22;9284;52.298;21.164;2023-06-04T05:26:32;9.20;99.90
18317;DHT22;9284;52.298;21.164;2023-06-04T05:29:08;9.40;99.90
18317;DHT22;9284;52.298;21.164;2023-06-04T05:31:40;9.60;99.90
18317;DHT22;9284;52.298;21.164;2023-06-04T05:34:11;9.80;99.90
18317;DHT22;9284;52.298;21.164;2023-06-04T05:36:44;10.10;99.90
18317;DHT22;9284;52.298;21.164;2023-06-04T05:39:13;10.40;99.90
18317;DHT22;9284;52.298;21.164;2023-06-04T05:41:57;10.50;99.90
18317;DHT22;9284;52.298;21.164;2023-06-04T05:44:27;10.70;99.90
18317;DHT22;9284;52.298;21.164;2023-06-04T05:46:55;11.00;90.10
18317;DHT22;9284;52.298;21.164;2023-06-04T05:49:25;11.20;87.40
18317;DHT22;9284;52.298;21.164;2023-06-04T05:51:56;11.50;23.90
18317;DHT22;9284;52.298;21.164;2023-06-04T05:54:26;11.80;20.90
18317;DHT22;9284;52.298;21.164;2023-06-04T05:56:55;12.20;1.00
18317;DHT22;9284;52.298;21.164;2023-06-04T05:59:24;12.40;1.00
18317;DHT22;9284;52.298;21.164;2023-06-04T06:01:54;12.60;1.00
18317;DHT22;9284;52.298;21.164;2023-06-04T06:04:24;13.00;1.00
18317;DHT22;9284;52.298;21.164;2023-06-04T06:06:52;13.30;1.00
18317;DHT22;9284;52.298;21.164;2023-06-04T06:09:21;13.50;1.00
18317;DHT22;9284;52.298;21.164;2023-06-04T06:11:50;13.80;1.00
18317;DHT22;9284;52.298;21.164;2023-06-04T06:14:18;14.50;1.00
18317;DHT22;9284;52.298;21.164;2023-06-04T06:16:50;15.30;1.00
18317;DHT22;9284;52.298;21.164;2023-06-04T06:19:21;16.20;1.00
18317;DHT22;9284;52.298;21.164;2023-06-04T06:21:52;17.30;1.00
18317;DHT22;9284;52.298;21.164;2023-06-04T06:24:21;18.20;1.00
18317;DHT22;9284;52.298;21.164;2023-06-04T06:26:49;19.10;1.00
18317;DHT22;9284;52.298;21.164;2023-06-04T06:29:17;19.70;1.00
18317;DHT22;9284;52.298;21.164;2023-06-04T06:31:47;20.50;1.00
18317;DHT22;9284;52.298;21.164;2023-06-04T06:34:16;21.10;1.00
18317;DHT22;9284;52.298;21.164;2023-06-04T06:36:45;21.50;1.00
18317;DHT22;9284;52.298;21.164;2023-06-04T06:39:15;22.00;1.00
18317;DHT22;9284;52.298;21.164;2023-06-04T06:41:43;22.10;1.00
18317;DHT22;9284;52.298;21.164;2023-06-04T06:44:17;21.90;1.00
18317;DHT22;9284;52.298;21.164;2023-06-04T06:46:45;21.90;1.00
18317;DHT22;9284;52.298;21.164;2023-06-04T06:49:16;21.90;1.00
18317;DHT22;9284;52.298;21.164;2023-06-04T06:51:46;22.10;1.00
18317;DHT22;9284;52.298;21.164;2023-06-04T06:54:15;22.40;1.00
18317;DHT22;9284;52.298;21.164;2023-06-04T06:56:44;23.40;1.00
18317;DHT22;9284;52.298;21.164;2023-06-04T06:59:14;23.50;1.00
18317;DHT22;9284;52.298;21.164;2023-06-04T07:01:45;23.50;1.00
18317;DHT22;9284;52.298;21.164;2023-06-04T07:04:14;23.90;1.00
18317;DHT22;9284;52.298;21.164;2023-06-04T07:06:45;24.00;1.00
18317;DHT22;9284;52.298;21.164;2023-06-04T07:09:15;24.10;1.00
18317;DHT22;9284;52.298;21.164;2023-06-04T07:11:43;24.00;1.00
18317;DHT22;9284;52.298;21.164;2023-06-04T07:14:11;24.30;1.00
18317;DHT22;9284;52.298;21.164;2023-06-04T07:16:40;24.30;1.00
18317;DHT22;9284;52.298;21.164;2023-06-04T07:19:08;24.50;1.00
18317;DHT22;9284;52.298;21.164;2023-06-04T07:21:40;24.40;1.00
18317;DHT22;9284;52.298;21.164;2023-06-04T07:24:08;24.50;1.00
18317;DHT22;9284;52.298;21.164;2023-06-04T07:26:38;24.80;1.00
18317;DHT22;9284;52.298;21.164;2023-06-04T07:29:07;25.30;1.00
18317;DHT22;9284;52.298;21.164;2023-06-04T07:31:36;24.70;1.00
18317;DHT22;9284;52.298;21.164;2023-06-04T07:34:04;25.20;1.00
18317;DHT22;9284;52.298;21.164;2023-06-04T07:36:32;24.60;1.00
18317;DHT22;9284;52.298;21.164;2023-06-04T07:39:00;23.80;1.00
18317;DHT22;9284;52.298;21.164;2023-06-04T07:41:30;24.20;1.00
18317;DHT22;9284;52.298;21.164;2023-06-04T07:44:00;24.10;1.00
18317;DHT22;9284;52.298;21.164;2023-06-04T07:46:28;24.80;1.00
18317;DHT22;9284;52.298;21.164;2023-06-04T07:48:56;24.60;1.00
18317;DHT22;9284;52.298;21.164;2023-06-04T07:51:25;24.60;1.00
18317;DHT22;9284;52.298;21.164;2023-06-04T07:53:53;24.60;1.00
18317;DHT22;9284;52.298;21.164;2023-06-04T07:56:22;23.30;1.00
18317;DHT22;9284;52.298;21.164;2023-06-04T07:58:51;23.00;1.00
18317;DHT22;9284;52.298;21.164;2023-06-04T08:01:20;23.30;1.00
18317;DHT22;9284;52.298;21.164;2023-06-04T08:03:50;23.60;1.00
18317;DHT22;9284;52.298;21.164;2023-06-04T08:06:19;24.00;1.00
18317;DHT22;9284;52.298;21.164;2023-06-04T08:08:47;23.60;1.00
18317;DHT22;9284;52.298;21.164;2023-06-04T08:11:17;23.80;1.00
18317;DHT22;9284;52.298;21.164;2023-06-04T08:13:45;23.70;1.00
18317;DHT22;9284;52.298;21.164;2023-06-04T08:16:13;22.70;1.00
18317;DHT22;9284;52.298;21.164;2023-06-04T08:18:43;23.00;1.00
18317;DHT22;9284;52.298;21.164;2023-06-04T08:21:11;23.50;1.00
18317;DHT22;9284;52.298;21.164;2023-06-04T08:23:40;23.60;1.00
18317;DHT22;9284;52.298;21.164;2023-06-04T08:26:09;24.40;1.00
18317;DHT22;9284;52.298;21.164;2023-06-04T08:28:37;24.70;1.00
18317;DHT22;9284;52.298;21.164;2023-06-04T08:31:07;24.40;1.00
18317;DHT22;9284;52.298;21.164;2023-06-04T08:33:35;24.20;1.00
18317;DHT22;9284;52.298;21.164;2023-06-04T08:36:05;23.60;1.00
18317;DHT22;9284;52.298;21.164;2023-06-04T08:38:34;24.30;1.00
18317;DHT22;9284;52.298;21.164;2023-06-04T08:41:08;24.00;1.00
18317;DHT22;9284;52.298;21.164;2023-06-04T08:43:39;23.50;1.00
18317;DHT22;9284;52.298;21.164;2023-06-04T08:46:10;24.00;1.00
18317;DHT22;9284;52.298;21.164;2023-06-04T08:48:39;24.10;1.00
18317;DHT22;9284;52.298;21.164;2023-06-04T08:51:10;23.80;1.00
18317;DHT22;9284;52.298;21.164;2023-06-04T08:53:38;24.40;1.00
18317;DHT22;9284;52.298;21.164;2023-06-04T08:56:07;24.80;1.00
18317;DHT22;9284;52.298;21.164;2023-06-04T08:58:36;25.10;1.00
18317;DHT22;9284;52.298;21.164;2023-06-04T09:01:05;25.30;1.00
18317;DHT22;9284;52.298;21.164;2023-06-04T09:03:36;24.90;1.00
18317;DHT22;9284;52.298;21.164;2023-06-04T09:06:06;24.20;1.00
18317;DHT22;9284;52.298;21.164;2023-06-04T09:08:40;24.50;1.00
18317;DHT22;9284;52.298;21.164;2023-06-04T09:11:14;24.80;1.00
18317;DHT22;9284;52.298;21.164;2023-06-04T09:13:53;25.50;1.00
18317;DHT22;9284;52.298;21.164;2023-06-04T09:16:45;25.40;1.00
18317;DHT22;9284;52.298;21.164;2023-06-04T09:19:19;25.80;1.00
18317;DHT22;9284;52.298;21.164;2023-06-04T09:21:54;25.80;1.00
18317;DHT22;9284;52.298;21.164;2023-06-04T09:24:39;25.90;1.00
18317;DHT22;9284;52.298;21.164;2023-06-04T09:27:11;25.90;1.00
18317;DHT22;9284;52.298;21.164;2023-06-04T09:29:51;25.80;1.00
18317;DHT22;9284;52.298;21.164;2023-06-04T09:32:23;24.80;1.00
18317;DHT22;9284;52.298;21.164;2023-06-04T09:34:55;24.60;1.00
18317;DHT22;9284;52.298;21.164;2023-06-04T09:37:24;23.80;1.00
18317;DHT22;9284;52.298;21.164;2023-06-04T09:39:55;24.00;1.00
18317;DHT22;9284;52.298;21.164;2023-06-04T09:42:24;23.90;1.00
18317;DHT22;9284;52.298;21.164;2023-06-04T09:44:52;23.50;1.00
18317;DHT22;9284;52.298;21.164;2023-06-04T09:47:21;24.00;1.00
18317;DHT22;9284;52.298;21.164;2023-06-04T09:49:49;24.70;1.00
18317;DHT22;9284;52.298;21.164;2023-06-04T09:52:19;25.00;1.00
18317;DHT22;9284;52.298;21.164;2023-06-04T09:54:48;24.20;1.00
18317;DHT22;9284;52.298;21.164;2023-06-04T09:57:18;24.20;1.00
18317;DHT22;9284;52.298;21.164;2023-06-04T09:59:49;24.00;1.00
18317;DHT22;9284;52.298;21.164;2023-06-04T10:02:20;24.60;1.00
18317;DHT22;9284;52.298;21.164;2023-06-04T10:04:52;24.60;1.00
18317;DHT22;9284;52.298;21.164;2023-06-04T10:07:22;24.90;1.00
18317;DHT22;9284;52.298;21.164;2023-06-04T10:09:52;24.60;1.00
18317;DHT22;9284;52.298;21.164;2023-06-04T10:12:25;24.40;1.00
18317;DHT22;9284;52.298;21.164;2023-06-04T10:14:56;24.00;1.00
18317;DHT22;9284;52.298;21.164;2023-06-04T10:17:27;24.40;1.00
18317;DHT22;9284;52.298;21.164;2023-06-04T10:19:58;24.20;1.00
18317;DHT22;9284;52.298;21.164;2023-06-04T10:22:29;24.30;1.00
18317;DHT22;9284;52.298;21.164;2023-06-04T10:24:59;24.10;1.00
18317;DHT22;9284;52.298;21.164;2023-06-04T10:27:30;24.40;1.00
18317;DHT22;9284;52.298;21.164;2023-06-04T10:29:58;23.60;1.00
18317;DHT22;9284;52.298;21.164;2023-06-04T10:32:27;23.10;1.00
18317;DHT22;9284;52.298;21.164;2023-06-04T10:34:56;23.40;1.00
18317;DHT22;9284;52.298;21.164;2023-06-04T10:37:26;24.10;1.00
18317;DHT22;9284;52.298;21.164;2023-06-04T10:39:58;24.10;1.00
18317;DHT22;9284;52.298;21.164;2023-06-04T10:42:40;23.70;1.00
18317;DHT22;9284;52.298;21.164;2023-06-04T10:45:10;23.50;1.00
18317;DHT22;9284;52.298;21.164;2023-06-04T10:47:39;22.80;1.00
18317;DHT22;9284;52.298;21.164;2023-06-04T10:50:10;22.30;1.00
18317;DHT22;9284;52.298;21.164;2023-06-04T10:52:49;21.90;1.00
18317;DHT22;9284;52.298;21.164;2023-06-04T10:55:18;21.20;1.00
18317;DHT22;9284;52.298;21.164;2023-06-04T10:57:53;21.00;1.00
18317;DHT22;9284;52.298;21.164;2023-06-04T11:00:21;21.70;1.00
18317;DHT22;9284;52.298;21.164;2023-06-04T11:02:52;22.40;1.00
18317;DHT22;9284;52.298;21.164;2023-06-04T11:05:20;23.00;1.00
18317;DHT22;9284;52.298;21.164;2023-06-04T11:07:50;23.20;1.00
18317;DHT22;9284;52.298;21.164;2023-06-04T11:10:18;23.60;1.00
18317;DHT22;9284;52.298;21.164;2023-06-04T11:13:01;23.80;1.00
18317;DHT22;9284;52.298;21.164;2023-06-04T11:15:38;24.10;1.00
18317;DHT22;9284;52.298;21.164;2023-06-04T11:18:13;23.80;1.00
18317;DHT22;9284;52.298;21.164;2023-06-04T11:20:43;23.90;1.00
18317;DHT22;9284;52.298;21.164;2023-06-04T11:23:33;24.20;1.00
18317;DHT22;9284;52.298;21.164;2023-06-04T11:26:03;24.40;1.00
18317;DHT22;9284;52.298;21.164;2023-06-04T11:28:38;24.60;1.00
18317;DHT22;9284;52.298;21.164;2023-06-04T11:31:18;24.10;1.00
18317;DHT22;9284;52.298;21.164;2023-06-04T11:33:48;24.00;1.00
18317;DHT22;9284;52.298;21.164;2023-06-04T11:36:22;23.60;1.00
18317;DHT22;9284;52.298;21.164;2023-06-04T11:38:58;23.50;1.00
18317;DHT22;9284;52.298;21.164;2023-06-04T11:41:43;23.20;1.00
18317;DHT22;9284;52.298;21.164;2023-06-04T11:44:36;23.10;1.00
18317;DHT22;9284;52.298;21.164;2023-06-04T11:47:24;23.00;1.00
18317;DHT22;9284;52.298;21.164;2023-06-04T11:50:20;22.90;1.00
18317;DHT22;9284;52.298;21.164;2023-06-04T11:56:42;22.90;1.00
18317;DHT22;9284;52.298;21.164;2023-06-04T11:59:52;22.40;1.00
18317;DHT22;9284;52.298;21.164;2023-06-04T12:02:32;22.20;1.00
18317;DHT22;9284;52.298;21.164;2023-06-04T12:05:43;22.30;1.00
18317;DHT22;9284;52.298;21.164;2023-06-04T12:09:04;21.90;1.00
18317;DHT22;9284;52.298;21.164;2023-06-04T12:12:38;21.40;1.00
18317;DHT22;9284;52.298;21.164;2023-06-04T12:15:52;21.50;1.00
18317;DHT22;9284;52.298;21.164;2023-06-04T12:19:27;21.80;1.00
18317;DHT22;9284;52.298;21.164;2023-06-04T12:23:01;21.90;1.00
18317;DHT22;9284;52.298;21.164;2023-06-04T12:26:24;21.60;1.00
18317;DHT22;9284;52.298;21.164;2023-06-04T12:29:54;21.40;1.00
18317;DHT22;9284;52.298;21.164;2023-06-04T12:33:20;21.40;1.00
18317;DHT22;9284;52.298;21.164;2023-06-04T12:35:56;21.60;1.00
18317;DHT22;9284;52.298;21.164;2023-06-04T12:38:30;21.70;1.00
18317;DHT22;9284;52.298;21.164;2023-06-04T12:41:35;21.70;1.00
18317;DHT22;9284;52.298;21.164;2023-06-04T12:44:24;21.60;1.00
18317;DHT22;9284;52.298;21.164;2023-06-04T12:47:13;22.00;1.00
18317;DHT22;9284;52.298;21.164;2023-06-04T12:49:46;22.00;1.00
18317;DHT22;9284;52.298;21.164;2023-06-04T12:52:27;22.10;1.00
18317;DHT22;9284;52.298;21.164;2023-06-04T12:55:13;22.00;1.00
18317;DHT22;9284;52.298;21.164;2023-06-04T12:58:00;21.90;1.00
18317;DHT22;9284;52.298;21.164;2023-06-04T13:00:40;21.70;1.00
18317;DHT22;9284;52.298;21.164;2023-06-04T13:03:37;21.60;1.00
18317;DHT22;9284;52.298;21.164;2023-06-04T13:06:33;21.50;1.00
18317;DHT22;9284;52.298;21.164;2023-06-04T13:10:31;21.60;1.00
18317;DHT22;9284;52.298;21.164;2023-06-04T13:13:39;21.80;1.00
18317;DHT22;9284;52.298;21.164;2023-06-04T13:17:06;21.90;1.00
18317;DHT22;9284;52.298;21.164;2023-06-04T13:20:41;21.80;1.00
18317;DHT22;9284;52.298;21.164;2023-06-04T13:30:12;22.40;1.00
18317;DHT22;9284;52.298;21.164;2023-06-04T13:32:46;22.60;1.00
18317;DHT22;9284;52.298;21.164;2023-06-04T13:35:18;22.50;1.00
18317;DHT22;9284;52.298;21.164;2023-06-04T13:37:57;22.30;1.00
18317;DHT22;9284;52.298;21.164;2023-06-04T13:40:33;22.40;1.00
18317;DHT22;9284;52.298;21.164;2023-06-04T13:43:05;22.60;1.00
18317;DHT22;9284;52.298;21.164;2023-06-04T13:45:37;22.60;1.00
18317;DHT22;9284;52.298;21.164;2023-06-04T13:48:16;22.60;1.00
18317;DHT22;9284;52.298;21.164;2023-06-04T13:50:45;22.60;1.00
18317;DHT22;9284;52.298;21.164;2023-06-04T13:53:20;22.50;1.00
18317;DHT22;9284;52.298;21.164;2023-06-04T13:55:49;22.40;1.00
18317;DHT22;9284;52.298;21.164;2023-06-04T13:58:50;22.20;1.00
18317;DHT22;9284;52.298;21.164;2023-06-04T14:01:24;22.20;1.00
18317;DHT22;9284;52.298;21.164;2023-06-04T14:03:54;22.20;1.00
18317;DHT22;9284;52.298;21.164;2023-06-04T14:06:29;22.30;1.00
18317;DHT22;9284;52.298;21.164;2023-06-04T14:08:59;22.20;1.00
18317;DHT22;9284;52.298;21.164;2023-06-04T14:11:39;22.20;1.00
18317;DHT22;9284;52.298;21.164;2023-06-04T14:14:17;22.00;1.00
18317;DHT22;9284;52.298;21.164;2023-06-04T14:16:55;22.10;1.00
18317;DHT22;9284;52.298;21.164;2023-06-04T14:19:27;22.00;1.00
18317;DHT22;9284;52.298;21.164;2023-06-04T14:22:10;22.10;1.00
18317;DHT22;9284;52.298;21.164;2023-06-04T14:24:49;22.00;1.00
18317;DHT22;9284;52.298;21.164;2023-06-04T14:27:20;22.10;1.00
18317;DHT22;9284;52.298;21.164;2023-06-04T14:29:52;22.10;1.00
18317;DHT22;9284;52.298;21.164;2023-06-04T14:33:01;21.70;1.00
18317;DHT22;9284;52.298;21.164;2023-06-04T14:35:35;21.40;1.00
18317;DHT22;9284;52.298;21.164;2023-06-04T14:38:08;21.40;1.00
18317;DHT22;9284;52.298;21.164;2023-06-04T14:40:41;21.40;1.00
18317;DHT22;9284;52.298;21.164;2023-06-04T14:43:20;21.40;1.00
18317;DHT22;9284;52.298;21.164;2023-06-04T14:45:51;21.40;1.00
18317;DHT22;9284;52.298;21.164;2023-06-04T14:48:23;21.40;1.00
18317;DHT22;9284;52.298;21.164;2023-06-04T14:50:55;21.50;1.00
18317;DHT22;9284;52.298;21.164;2023-06-04T14:53:24;21.60;1.00
18317;DHT22;9284;52.298;21.164;2023-06-04T14:55:56;21.80;1.00
18317;DHT22;9284;52.298;21.164;2023-06-04T14:58:27;21.80;1.00
18317;DHT22;9284;52.298;21.164;2023-06-04T15:01:01;21.80;1.00
18317;DHT22;9284;52.298;21.164;2023-06-04T15:03:38;21.70;1.00
18317;DHT22;9284;52.298;21.164;2023-06-04T15:06:09;21.60;1.00
18317;DHT22;9284;52.298;21.164;2023-06-04T15:08:52;21.60;1.00
18317;DHT22;9284;52.298;21.164;2023-06-04T15:11:25;21.60;1.00
18317;DHT22;9284;52.298;21.164;2023-06-04T15:13:56;21.50;1.00
18317;DHT22;9284;52.298;21.164;2023-06-04T15:16:26;21.60;1.00
18317;DHT22;9284;52.298;21.164;2023-06-04T15:18:57;21.50;1.00
18317;DHT22;9284;52.298;21.164;2023-06-04T15:21:31;21.60;1.00
18317;DHT22;9284;52.298;21.164;2023-06-04T15:24:02;21.60;1.00
18317;DHT22;9284;52.298;21.164;2023-06-04T15:26:35;21.50;1.00
18317;DHT22;9284;52.298;21.164;2023-06-04T15:29:05;21.50;1.00
18317;DHT22;9284;52.298;21.164;2023-06-04T15:31:34;21.50;1.00
18317;DHT22;9284;52.298;21.164;2023-06-04T15:34:09;21.50;1.00
18317;DHT22;9284;52.298;21.164;2023-06-04T15:36:42;21.30;1.00
18317;DHT22;9284;52.298;21.164;2023-06-04T15:39:15;21.50;1.00
18317;DHT22;9284;52.298;21.164;2023-06-04T15:41:52;21.50;1.00
18317;DHT22;9284;52.298;21.164;2023-06-04T15:44:23;21.30;1.00
18317;DHT22;9284;52.298;21.164;2023-06-04T15:46:54;21.40;1.00
18317;DHT22;9284;52.298;21.164;2023-06-04T15:49:34;21.40;1.00
18317;DHT22;9284;52.298;21.164;2023-06-04T15:52:08;21.30;1.00
18317;DHT22;9284;52.298;21.164;2023-06-04T15:55:00;21.30;1.00
18317;DHT22;9284;52.298;21.164;2023-06-04T15:57:37;21.20;1.00
18317;DHT22;9284;52.298;21.164;2023-06-04T16:00:08;21.20;1.00
18317;DHT22;9284;52.298;21.164;2023-06-04T16:02:39;21.20;1.00
18317;DHT22;9284;52.298;21.164;2023-06-04T16:05:25;21.20;1.00
18317;DHT22;9284;52.298;21.164;2023-06-04T16:07:58;21.10;1.00
18317;DHT22;9284;52.298;21.164;2023-06-04T16:10:30;21.10;1.00
18317;DHT22;9284;52.298;21.164;2023-06-04T16:13:09;21.00;1.00
18317;DHT22;9284;52.298;21.164;2023-06-04T16:15:44;21.00;1.00
18317;DHT22;9284;52.298;21.164;2023-06-04T16:18:17;20.90;1.00
18317;DHT22;9284;52.298;21.164;2023-06-04T16:20:50;20.80;1.00
18317;DHT22;9284;52.298;21.164;2023-06-04T16:23:23;20.80;1.00
18317;DHT22;9284;52.298;21.164;2023-06-04T16:25:52;20.70;1.00
18317;DHT22;9284;52.298;21.164;2023-06-04T16:28:27;20.60;1.00
18317;DHT22;9284;52.298;21.164;2023-06-04T16:31:44;20.60;1.00
18317;DHT22;9284;52.298;21.164;2023-06-04T16:35:18;20.60;1.00
18317;DHT22;9284;52.298;21.164;2023-06-04T16:38:17;20.50;1.00
18317;DHT22;9284;52.298;21.164;2023-06-04T16:41:46;20.50;1.00
18317;DHT22;9284;52.298;21.164;2023-06-04T16:45:14;20.40;1.00
18317;DHT22;9284;52.298;21.164;2023-06-04T16:48:31;20.40;1.00
18317;DHT22;9284;52.298;21.164;2023-06-04T16:51:21;20.30;1.00
18317;DHT22;9284;52.298;21.164;2023-06-04T17:08:50;20.00;1.00
18317;DHT22;9284;52.298;21.164;2023-06-04T17:11:30;19.90;1.00
18317;DHT22;9284;52.298;21.164;2023-06-04T17:14:07;19.80;1.00
18317;DHT22;9284;52.298;21.164;2023-06-04T17:16:46;19.80;1.00
18317;DHT22;9284;52.298;21.164;2023-06-04T17:19:21;19.70;1.00
18317;DHT22;9284;52.298;21.164;2023-06-04T17:21:55;19.60;1.00